createdAt,value
2019-02-07T00:00:18.954Z,1.63
2019-02-07T00:02:48.085Z,1.97
2019-02-07T00:05:17.047Z,1.87
2019-02-07T00:07:46.079Z,2.23
2019-02-07T00:10:15.393Z,1.73
2019-02-07T00:12:44.430Z,2.53
2019-02-07T00:15:14.440Z,4.00
2019-02-07T00:17:43.906Z,2.57
2019-02-07T00:20:13.114Z,2.37
2019-02-07T00:22:42.148Z,2.77
2019-02-07T00:25:11.645Z,2.40
2019-02-07T00:27:40.601Z,2.53
2019-02-07T00:30:12.966Z,1.30
2019-02-07T00:32:42.297Z,2.00
2019-02-07T00:35:11.375Z,1.50
2019-02-07T00:37:40.406Z,1.63
2019-02-07T00:40:12.353Z,3.27
2019-02-07T00:42:41.434Z,1.90
2019-02-07T00:45:12.270Z,2.67
2019-02-07T00:47:42.094Z,1.80
2019-02-07T00:50:13.224Z,1.53
2019-02-07T00:52:42.192Z,2.33
2019-02-07T00:55:12.746Z,2.43
2019-02-07T00:57:42.386Z,2.17
2019-02-07T01:00:15.219Z,4.00
2019-02-07T01:02:44.190Z,2.20
2019-02-07T01:05:14.359Z,1.67
2019-02-07T01:07:43.407Z,1.47
2019-02-07T01:10:13.575Z,3.27
2019-02-07T01:12:43.541Z,4.00
2019-02-07T01:15:12.926Z,3.17
2019-02-07T01:17:41.978Z,2.40
2019-02-07T01:20:12.201Z,2.87
2019-02-07T01:22:41.190Z,2.40
2019-02-07T01:25:12.618Z,2.10
2019-02-07T01:27:41.799Z,2.90
2019-02-07T01:30:12.756Z,1.47
2019-02-07T01:32:41.789Z,4.07
2019-02-07T01:35:10.862Z,1.87
2019-02-07T01:37:40.047Z,3.43
2019-02-07T01:40:12.106Z,1.60
2019-02-07T01:42:41.415Z,2.43
2019-02-07T01:45:13.344Z,1.53
2019-02-07T01:47:42.546Z,1.57
2019-02-07T01:50:13.342Z,4.33
2019-02-07T01:52:43.282Z,2.20
2019-02-07T01:55:12.506Z,1.60
2019-02-07T01:57:41.604Z,1.87
2019-02-07T02:00:13.558Z,1.73
2019-02-07T02:02:42.608Z,2.63
2019-02-07T02:05:14.018Z,1.47
2019-02-07T02:07:43.015Z,9.70
2019-02-07T02:10:18.047Z,1.70
2019-02-07T02:12:47.218Z,2.83
2019-02-07T02:15:24.469Z,1.50
2019-02-07T02:17:48.586Z,1.97
2019-02-07T02:20:18.018Z,1.53
2019-02-07T02:22:47.058Z,2.00
2019-02-07T02:25:16.330Z,2.30
2019-02-07T02:27:45.683Z,1.80
2019-02-07T02:30:17.131Z,2.03
2019-02-07T02:32:46.145Z,2.33
2019-02-07T02:35:15.198Z,1.90
2019-02-07T02:37:44.172Z,1.80
2019-02-07T02:40:13.831Z,2.33
2019-02-07T02:42:42.798Z,1.60
2019-02-07T02:45:13.022Z,1.20
2019-02-07T02:47:42.174Z,1.60
2019-02-07T02:50:13.577Z,2.30
2019-02-07T02:52:42.726Z,2.37
2019-02-07T02:55:14.142Z,1.53
2019-02-07T02:57:43.409Z,2.83
2019-02-07T03:00:19.487Z,2.50
2019-02-07T03:03:10.554Z,1.30
2019-02-07T03:06:04.716Z,1.50
2019-02-07T03:08:58.543Z,1.33
2019-02-07T03:11:55.559Z,2.87
2019-02-07T03:14:46.652Z,1.70
2019-02-07T03:17:41.788Z,1.90
2019-02-07T03:20:36.126Z,2.30
2019-02-07T03:23:27.422Z,1.43
2019-02-07T03:26:28.284Z,2.40
2019-02-07T03:29:19.214Z,1.70
2019-02-07T03:32:00.707Z,1.57
2019-02-07T03:34:48.900Z,1.90
2019-02-07T03:37:46.836Z,1.27
2019-02-07T03:40:51.417Z,1.43
2019-02-07T03:43:54.427Z,1.47
2019-02-07T03:46:41.211Z,2.13
2019-02-07T03:49:35.070Z,1.50
2019-02-07T03:52:23.722Z,1.33
2019-02-07T03:55:31.500Z,1.57
2019-02-07T03:58:18.111Z,1.40
2019-02-07T04:01:06.339Z,1.30
2019-02-07T04:04:04.007Z,1.20
2019-02-07T04:06:48.367Z,1.47
2019-02-07T04:09:41.860Z,1.47
2019-02-07T04:12:28.930Z,1.47
2019-02-07T04:15:16.055Z,1.47
2019-02-07T04:18:08.284Z,0.90
2019-02-07T04:20:54.907Z,1.20
2019-02-07T04:23:42.904Z,1.27
2019-02-07T04:26:30.085Z,1.63
2019-02-07T04:29:24.665Z,1.80
2019-02-07T04:32:12.982Z,2.07
2019-02-07T04:35:00.453Z,1.07
2019-02-07T04:37:41.847Z,1.63
2019-02-07T04:40:28.612Z,1.00
2019-02-07T04:43:16.178Z,0.90
2019-02-07T04:46:26.575Z,1.07
2019-02-07T04:49:15.900Z,1.00
2019-02-07T04:52:03.988Z,1.17
2019-02-07T04:54:48.019Z,1.03
2019-02-07T04:57:35.550Z,1.03
2019-02-07T05:00:21.005Z,0.93
2019-02-07T05:02:58.734Z,2.70
2019-02-07T05:05:55.826Z,3.43
2019-02-07T05:08:49.900Z,1.00
2019-02-07T05:11:47.173Z,2.17
2019-02-07T05:14:28.923Z,1.87
2019-02-07T05:17:09.214Z,1.73
2019-02-07T05:19:56.420Z,0.70
2019-02-07T05:22:54.818Z,0.63
2019-02-07T05:25:58.078Z,1.00
2019-02-07T05:28:49.712Z,1.00
2019-02-07T05:31:27.586Z,0.90
2019-02-07T05:34:14.406Z,1.80
2019-02-07T05:37:02.891Z,3.00
2019-02-07T05:40:09.746Z,1.10
2019-02-07T05:43:03.794Z,0.80
2019-02-07T05:45:58.106Z,2.70
2019-02-07T05:48:41.526Z,0.80
2019-02-07T05:51:34.209Z,0.67
2019-02-07T05:54:21.134Z,1.53
2019-02-07T05:57:08.442Z,1.00
2019-02-07T05:59:56.862Z,0.70
2019-02-07T06:02:45.685Z,0.60
2019-02-07T06:05:32.568Z,0.60
2019-02-07T06:08:17.917Z,0.63
2019-02-07T06:11:18.237Z,0.60
2019-02-07T06:14:16.346Z,1.37
2019-02-07T06:17:07.182Z,0.60
2019-02-07T06:19:53.106Z,0.60
2019-02-07T06:22:33.052Z,0.90
2019-02-07T06:25:29.135Z,0.67
2019-02-07T06:28:35.298Z,0.57
2019-02-07T06:31:38.786Z,3.13
2019-02-07T06:34:29.868Z,0.60
2019-02-07T06:37:17.900Z,0.67
2019-02-07T06:40:18.286Z,1.27
2019-02-07T06:42:56.954Z,0.63
2019-02-07T06:45:32.354Z,0.70
2019-02-07T06:48:26.907Z,1.00
2019-02-07T06:51:05.578Z,0.57
2019-02-07T06:54:00.458Z,0.50
2019-02-07T06:56:43.895Z,0.97
2019-02-07T06:59:32.306Z,0.50
2019-02-07T07:02:20.380Z,1.13
2019-02-07T07:05:01.326Z,1.83
2019-02-07T07:08:04.915Z,2.03
2019-02-07T07:10:56.418Z,2.60
2019-02-07T07:13:36.322Z,1.23
2019-02-07T07:16:19.506Z,1.07
2019-02-07T07:19:16.761Z,3.93
2019-02-07T07:22:03.654Z,0.70
2019-02-07T07:25:10.284Z,4.23
2019-02-07T07:28:01.217Z,2.00
2019-02-07T07:30:55.278Z,1.63
2019-02-07T07:33:41.950Z,2.53
2019-02-07T07:36:28.755Z,0.57
2019-02-07T07:39:16.749Z,1.33
2019-02-07T07:42:01.098Z,4.80
2019-02-07T07:44:42.198Z,3.13
2019-02-07T07:47:36.007Z,3.47
2019-02-07T07:50:35.686Z,2.67
2019-02-07T07:53:29.402Z,3.43
2019-02-07T07:56:09.598Z,2.27
2019-02-07T07:59:00.622Z,4.40
2019-02-07T08:01:56.064Z,2.73
2019-02-07T08:04:50.027Z,3.20
2019-02-07T08:07:37.330Z,3.23
2019-02-07T08:10:35.462Z,3.73
2019-02-07T08:13:22.324Z,4.17
2019-02-07T08:16:19.632Z,3.27
2019-02-07T08:19:22.744Z,5.43
2019-02-07T08:22:09.075Z,4.03
2019-02-07T08:24:53.011Z,4.73
2019-02-07T08:27:44.024Z,6.20
2019-02-07T08:30:36.540Z,2.93
2019-02-07T08:33:30.728Z,2.73
2019-02-07T08:36:17.938Z,3.30
2019-02-07T08:39:01.574Z,3.10
2019-02-07T08:42:08.282Z,3.73
2019-02-07T08:44:56.098Z,3.17
2019-02-07T08:47:36.093Z,2.83
2019-02-07T08:50:27.886Z,6.73
2019-02-07T08:53:28.054Z,4.20
2019-02-07T08:56:31.383Z,3.50
2019-02-07T08:59:19.667Z,5.97
2019-02-07T09:02:06.727Z,3.20
2019-02-07T09:05:13.746Z,10.33
2019-02-07T09:08:11.015Z,2.53
2019-02-07T09:10:57.806Z,2.23
2019-02-07T09:13:45.831Z,7.50
2019-02-07T09:16:36.635Z,2.13
2019-02-07T09:19:16.358Z,4.83
2019-02-07T09:22:05.522Z,2.73
2019-02-07T09:24:58.054Z,5.50
2019-02-07T09:27:45.115Z,4.30
2019-02-07T09:30:37.957Z,2.63
2019-02-07T09:33:26.963Z,2.93
2019-02-07T09:36:20.839Z,4.37
2019-02-07T09:39:10.754Z,4.17
2019-02-07T09:41:54.439Z,5.37
2019-02-07T09:44:41.640Z,4.77
2019-02-07T09:47:38.431Z,2.53
2019-02-07T09:50:30.087Z,5.27
2019-02-07T09:53:24.353Z,5.57
2019-02-07T09:56:05.308Z,4.40
2019-02-07T09:58:54.069Z,2.20
2019-02-07T10:01:58.477Z,3.43
2019-02-07T10:04:46.527Z,7.57
2019-02-07T10:07:38.208Z,2.90
2019-02-07T10:10:33.182Z,4.13
2019-02-07T10:13:18.867Z,4.10
2019-02-07T10:16:09.653Z,5.00
2019-02-07T10:19:06.935Z,5.47
2019-02-07T10:21:55.266Z,4.47
2019-02-07T10:24:36.239Z,5.73
2019-02-07T10:27:33.734Z,3.73
2019-02-07T10:30:24.581Z,9.87
2019-02-07T10:33:11.370Z,5.47
2019-02-07T10:36:01.614Z,3.50
2019-02-07T10:38:52.956Z,3.57
2019-02-07T10:41:41.389Z,4.77
2019-02-07T10:44:22.922Z,6.13
2019-02-07T10:47:10.710Z,4.20
2019-02-07T10:49:59.417Z,2.83
2019-02-07T10:52:40.212Z,5.17
2019-02-07T10:55:31.350Z,4.53
2019-02-07T10:58:18.559Z,4.97
2019-02-07T11:01:05.926Z,2.40
2019-02-07T11:04:01.189Z,3.77
2019-02-07T11:07:01.395Z,4.27
2019-02-07T11:09:55.935Z,6.00
2019-02-07T11:12:52.918Z,3.10
2019-02-07T11:15:39.890Z,4.40
2019-02-07T11:18:30.938Z,16.73
2019-02-07T11:21:28.901Z,6.50
2019-02-07T11:24:32.206Z,5.07
2019-02-07T11:27:25.397Z,5.73
2019-02-07T11:30:16.236Z,3.57
2019-02-07T11:33:00.022Z,4.33
2019-02-07T11:35:40.258Z,4.90
2019-02-07T11:38:21.789Z,10.63
2019-02-07T11:41:15.924Z,6.43
2019-02-07T11:43:56.734Z,6.83
2019-02-07T11:46:41.971Z,5.87
2019-02-07T11:49:38.034Z,4.63
2019-02-07T11:52:28.818Z,3.23
2019-02-07T11:55:25.698Z,4.57
2019-02-07T11:58:03.739Z,5.93
2019-02-07T12:00:55.715Z,2.63
2019-02-07T12:04:02.600Z,3.73
2019-02-07T12:06:50.636Z,3.10
2019-02-07T12:09:38.617Z,3.93
2019-02-07T12:12:24.979Z,5.20
2019-02-07T12:15:03.268Z,4.83
2019-02-07T12:18:00.683Z,4.37
2019-02-07T12:20:49.171Z,4.93
2019-02-07T12:23:43.988Z,3.70
2019-02-07T12:26:34.470Z,4.27
2019-02-07T12:29:34.433Z,4.40
2019-02-07T12:32:35.102Z,6.60
2019-02-07T12:35:13.545Z,4.60
2019-02-07T12:38:10.792Z,7.97
2019-02-07T12:41:18.425Z,6.87
2019-02-07T12:44:27.343Z,4.97
2019-02-07T12:47:13.426Z,3.60
2019-02-07T12:50:01.430Z,4.87
2019-02-07T12:53:01.495Z,5.50
2019-02-07T12:55:55.306Z,4.77
2019-02-07T12:58:49.868Z,5.37
2019-02-07T13:01:40.931Z,2.67
2019-02-07T13:04:31.148Z,4.53
2019-02-07T13:07:17.984Z,6.50
2019-02-07T13:10:04.938Z,3.57
2019-02-07T13:13:05.102Z,4.50
2019-02-07T13:15:58.019Z,3.57
2019-02-07T13:18:48.910Z,4.30
2019-02-07T13:21:37.426Z,2.40
2019-02-07T13:24:26.889Z,3.53
2019-02-07T13:27:19.008Z,3.17
2019-02-07T13:30:15.190Z,6.37
2019-02-07T13:33:03.027Z,4.97
2019-02-07T13:35:56.818Z,4.07
2019-02-07T13:38:43.852Z,4.37
2019-02-07T13:41:32.983Z,4.03
2019-02-07T13:44:36.506Z,5.40
2019-02-07T13:47:17.883Z,4.83
2019-02-07T13:50:04.934Z,4.60
2019-02-07T13:53:11.055Z,4.03
2019-02-07T13:56:09.451Z,7.30
2019-02-07T13:58:57.893Z,5.13
2019-02-07T14:01:56.773Z,12.07
2019-02-07T14:04:42.051Z,2.57
2019-02-07T14:07:24.758Z,5.23
2019-02-07T14:10:19.852Z,5.33
2019-02-07T14:13:00.230Z,3.60
2019-02-07T14:15:53.362Z,3.43
2019-02-07T14:18:59.711Z,11.77
2019-02-07T14:21:46.154Z,3.03
2019-02-07T14:24:38.391Z,8.77
2019-02-07T14:27:29.178Z,3.50
2019-02-07T14:30:12.435Z,5.23
2019-02-07T14:33:02.781Z,3.93
2019-02-07T14:35:53.903Z,6.47
2019-02-07T14:38:40.775Z,4.07
2019-02-07T14:41:27.665Z,2.63
2019-02-07T14:44:03.885Z,4.77
2019-02-07T14:46:58.535Z,2.33
2019-02-07T14:49:27.603Z,2.77
2019-02-07T14:51:57.042Z,4.50
2019-02-07T14:54:26.112Z,3.60
2019-02-07T14:56:55.166Z,2.83
2019-02-07T14:59:24.446Z,3.33
2019-02-07T15:01:53.530Z,2.97
2019-02-07T15:04:22.679Z,3.37
2019-02-07T15:06:52.623Z,3.10
2019-02-07T15:09:22.098Z,2.63
2019-02-07T15:11:51.157Z,5.77
2019-02-07T15:14:20.480Z,4.73
2019-02-07T15:16:50.074Z,3.83
2019-02-07T15:19:19.129Z,2.33
2019-02-07T15:21:48.659Z,2.80
2019-02-07T15:24:18.143Z,2.97
2019-02-07T15:26:47.331Z,3.97
2019-02-07T15:29:16.542Z,2.33
2019-02-07T15:31:45.614Z,2.90
2019-02-07T15:34:14.654Z,2.87
2019-02-07T15:36:45.882Z,2.00
2019-02-07T15:39:15.954Z,2.23
2019-02-07T15:41:45.006Z,4.37
2019-02-07T15:44:14.052Z,4.47
2019-02-07T15:46:43.591Z,3.87
2019-02-07T15:49:12.695Z,5.90
2019-02-07T15:51:41.758Z,1.63
2019-02-07T15:54:10.851Z,1.13
2019-02-07T15:56:39.864Z,2.03
2019-02-07T15:59:31.337Z,4.13
2019-02-07T16:02:22.619Z,4.43
2019-02-07T16:04:51.939Z,4.40
2019-02-07T16:07:21.066Z,3.23
2019-02-07T16:09:50.113Z,3.13
2019-02-07T16:12:19.458Z,4.30
2019-02-07T16:14:48.429Z,3.30
2019-02-07T16:17:17.765Z,3.63
2019-02-07T16:19:47.318Z,2.10
2019-02-07T16:22:16.359Z,4.30
2019-02-07T16:24:45.529Z,5.03
2019-02-07T16:27:15.135Z,4.27
2019-02-07T16:29:44.337Z,2.90
2019-02-07T16:32:12.851Z,3.87
2019-02-07T16:34:41.919Z,3.63
2019-02-07T16:37:10.999Z,3.37
2019-02-07T16:39:40.126Z,2.77
2019-02-07T16:42:09.542Z,3.27
2019-02-07T16:44:38.510Z,4.60
2019-02-07T16:47:07.556Z,2.80
2019-02-07T16:49:36.798Z,6.90
2019-02-07T16:52:05.884Z,3.23
2019-02-07T16:54:34.873Z,1.70
2019-02-07T16:57:03.993Z,6.37
2019-02-07T16:59:33.544Z,5.37
2019-02-07T17:02:03.053Z,2.80
2019-02-07T17:04:32.660Z,3.97
2019-02-07T17:07:01.667Z,3.00
2019-02-07T17:09:35.410Z,5.17
2019-02-07T17:12:04.972Z,7.07
2019-02-07T17:14:34.130Z,4.03
2019-02-07T17:17:05.444Z,8.80
2019-02-07T17:19:34.195Z,5.63
2019-02-07T17:22:03.298Z,10.43
2019-02-07T17:24:32.327Z,6.07
2019-02-07T17:27:02.312Z,6.83
2019-02-07T17:29:31.367Z,14.53
2019-02-07T17:32:00.410Z,9.27
2019-02-07T17:34:29.585Z,10.67
2019-02-07T17:36:58.651Z,9.33
2019-02-07T17:39:27.662Z,9.37
2019-02-07T17:41:59.495Z,9.23
2019-02-07T17:44:27.890Z,10.00
2019-02-07T17:46:57.145Z,13.00
2019-02-07T17:49:26.162Z,13.70
2019-02-07T17:51:55.215Z,55.27
2019-02-07T17:54:24.426Z,60.53
2019-02-07T17:56:53.894Z,58.47
2019-02-07T17:59:23.012Z,54.57
2019-02-07T18:01:52.062Z,49.33
2019-02-07T18:04:21.234Z,50.87
2019-02-07T18:06:50.845Z,42.53
2019-02-07T18:09:19.962Z,41.10
2019-02-07T18:11:49.254Z,37.93
2019-02-07T18:14:18.687Z,44.63
2019-02-07T18:16:47.659Z,33.17
2019-02-07T18:19:16.822Z,30.87
2019-02-07T18:21:45.943Z,33.87
2019-02-07T18:24:15.105Z,34.33
2019-02-07T18:26:44.105Z,34.60
2019-02-07T18:29:13.557Z,28.80
2019-02-07T18:31:42.943Z,29.10
2019-02-07T18:34:12.247Z,29.33
2019-02-07T18:36:41.367Z,27.70
2019-02-07T18:39:10.672Z,28.83
2019-02-07T18:41:40.016Z,29.07
2019-02-07T18:44:09.656Z,25.03
2019-02-07T18:46:38.959Z,29.73
2019-02-07T18:49:08.562Z,22.27
2019-02-07T18:51:45.249Z,24.10
2019-02-07T18:54:08.530Z,23.10
2019-02-07T18:56:37.696Z,25.67
2019-02-07T18:59:06.586Z,23.43
2019-02-07T19:01:35.733Z,23.57
2019-02-07T19:04:04.946Z,20.20
2019-02-07T19:06:34.527Z,24.70
2019-02-07T19:09:04.139Z,21.93
2019-02-07T19:11:33.300Z,22.67
2019-02-07T19:14:02.618Z,18.87
2019-02-07T19:16:31.693Z,20.13
2019-02-07T19:19:01.011Z,14.00
2019-02-07T19:21:30.003Z,20.33
2019-02-07T19:23:59.991Z,21.63
2019-02-07T19:26:29.230Z,15.37
2019-02-07T19:28:58.286Z,15.30
2019-02-07T19:31:27.513Z,14.37
2019-02-07T19:33:56.651Z,13.60
2019-02-07T19:36:25.695Z,13.57
2019-02-07T19:38:54.665Z,14.47
2019-02-07T19:41:24.027Z,11.83
2019-02-07T19:43:53.221Z,18.13
2019-02-07T19:46:22.787Z,16.20
2019-02-07T19:48:52.557Z,11.30
2019-02-07T19:51:21.592Z,14.37
2019-02-07T19:53:50.649Z,12.53
2019-02-07T19:56:19.966Z,11.77
2019-02-07T19:58:48.953Z,11.10
2019-02-07T20:01:18.010Z,13.10
2019-02-07T20:03:47.193Z,12.83
2019-02-07T20:06:16.549Z,14.97
2019-02-07T20:08:46.786Z,11.10
2019-02-07T20:11:15.918Z,14.13
2019-02-07T20:13:45.186Z,15.03
2019-02-07T20:16:14.244Z,10.93
2019-02-07T20:18:44.268Z,11.07
2019-02-07T20:21:13.389Z,10.33
2019-02-07T20:23:42.617Z,11.90
2019-02-07T20:26:12.275Z,12.47
2019-02-07T20:28:41.393Z,11.93
2019-02-07T20:31:12.008Z,13.33
2019-02-07T20:36:26.915Z,9.00
2019-02-07T20:38:55.987Z,12.30
2019-02-07T20:41:25.355Z,8.20
2019-02-07T20:43:55.174Z,9.50
2019-02-07T20:46:24.502Z,13.70
2019-02-07T20:48:54.170Z,7.13
2019-02-07T20:51:23.471Z,8.77
2019-02-07T20:53:54.617Z,7.87
2019-02-07T20:56:23.765Z,11.47
2019-02-07T20:58:52.990Z,9.27
2019-02-07T21:01:22.018Z,12.80
2019-02-07T21:03:52.066Z,15.77
2019-02-07T21:06:21.651Z,17.70
2019-02-07T21:08:50.845Z,12.37
2019-02-07T21:11:19.914Z,13.43
2019-02-07T21:13:49.061Z,11.90
2019-02-07T21:16:18.174Z,11.97
2019-02-07T21:18:47.222Z,11.43
2019-02-07T21:21:16.499Z,20.47
2019-02-07T21:23:45.745Z,15.17
2019-02-07T21:26:15.711Z,11.70
2019-02-07T21:28:44.850Z,14.07
2019-02-07T21:31:13.891Z,16.20
2019-02-07T21:33:43.425Z,15.43
2019-02-07T21:36:12.581Z,10.80
2019-02-07T21:38:42.086Z,14.57
2019-02-07T21:41:11.856Z,12.83
2019-02-07T21:43:41.149Z,20.77
2019-02-07T21:46:10.338Z,11.37
2019-02-07T21:48:39.530Z,8.90
2019-02-07T21:51:08.722Z,15.00
2019-02-07T21:53:38.262Z,14.53
2019-02-07T21:56:07.303Z,14.57
2019-02-07T21:58:36.551Z,8.33
2019-02-07T22:01:05.617Z,9.23
2019-02-07T22:03:35.011Z,11.20
2019-02-07T22:06:04.342Z,11.37
2019-02-07T22:08:33.454Z,7.33
2019-02-07T22:11:02.507Z,8.57
2019-02-07T22:13:31.574Z,10.33
2019-02-07T22:16:00.687Z,9.03
2019-02-07T22:18:29.796Z,11.07
2019-02-07T22:20:58.859Z,8.17
2019-02-07T22:23:28.678Z,9.90
2019-02-07T22:25:57.818Z,12.57
2019-02-07T22:28:26.866Z,9.33
2019-02-07T22:30:55.829Z,9.07
2019-02-07T22:33:24.894Z,12.60
2019-02-07T22:35:54.976Z,12.30
2019-02-07T22:38:24.287Z,21.27
2019-02-07T22:40:53.551Z,8.80
2019-02-07T22:43:22.838Z,11.00
2019-02-07T22:45:52.222Z,7.73
2019-02-07T22:48:21.629Z,10.13
2019-02-07T22:50:50.715Z,9.37
2019-02-07T22:53:19.682Z,8.03
2019-02-07T22:55:48.936Z,6.47
2019-02-07T22:58:18.009Z,11.67
2019-02-07T23:01:26.582Z,10.03
2019-02-07T23:04:00.581Z,8.20
2019-02-07T23:06:29.881Z,6.03
2019-02-07T23:08:58.922Z,12.17
2019-02-07T23:11:28.081Z,9.50
2019-02-07T23:13:57.060Z,13.43
2019-02-07T23:16:26.939Z,9.83
2019-02-07T23:18:56.154Z,7.53
2019-02-07T23:21:25.202Z,7.30
2019-02-07T23:23:54.474Z,11.53
2019-02-07T23:26:23.643Z,10.17
2019-02-07T23:28:53.279Z,6.33
2019-02-07T23:31:22.326Z,7.93
2019-02-07T23:33:51.273Z,8.03
2019-02-07T23:36:20.654Z,7.43
2019-02-07T23:38:49.844Z,5.03
2019-02-07T23:41:19.758Z,7.30
2019-02-07T23:43:49.282Z,5.83
2019-02-07T23:46:18.642Z,8.10
2019-02-07T23:48:48.281Z,7.27
2019-02-07T23:51:17.731Z,5.10
2019-02-07T23:53:47.164Z,11.37
2019-02-07T23:56:16.191Z,8.60
2019-02-07T23:58:45.544Z,7.53
